createdAt,value
2018-05-14T00:00:26.869Z,12.30
2018-05-14T00:02:56.297Z,12.30
2018-05-14T00:05:24.421Z,12.30
2018-05-14T00:07:52.868Z,12.30
2018-05-14T00:10:21.330Z,12.40
2018-05-14T00:12:49.756Z,12.30
2018-05-14T00:15:18.199Z,12.20
2018-05-14T00:17:46.661Z,12.20
2018-05-14T00:20:15.099Z,12.30
2018-05-14T00:22:43.553Z,12.30
2018-05-14T00:25:11.994Z,12.30
2018-05-14T00:27:41.464Z,12.40
2018-05-14T00:30:10.111Z,12.30
2018-05-14T00:32:38.557Z,12.50
2018-05-14T00:35:07.899Z,12.40
2018-05-14T00:37:36.350Z,12.40
2018-05-14T00:40:05.575Z,12.50
2018-05-14T00:42:34.045Z,12.50
2018-05-14T00:45:02.540Z,12.40
2018-05-14T00:47:30.961Z,12.50
2018-05-14T00:49:59.420Z,12.60
2018-05-14T00:52:27.873Z,12.60
2018-05-14T00:55:07.553Z,12.50
2018-05-14T00:57:36.151Z,12.60
2018-05-14T01:00:04.458Z,12.60
2018-05-14T01:02:33.820Z,12.60
2018-05-14T01:05:02.253Z,12.60
2018-05-14T01:07:31.489Z,12.40
2018-05-14T01:09:59.933Z,12.40
2018-05-14T01:12:29.180Z,12.60
2018-05-14T01:14:57.948Z,12.60
2018-05-14T01:17:26.617Z,12.60
2018-05-14T01:19:56.011Z,12.70
2018-05-14T01:22:25.388Z,12.60
2018-05-14T01:25:00.133Z,12.40
2018-05-14T01:27:28.777Z,12.40
2018-05-14T01:29:57.580Z,12.50
2018-05-14T01:32:26.008Z,12.60
2018-05-14T01:34:54.473Z,12.60
2018-05-14T01:37:23.770Z,12.60
2018-05-14T01:39:52.984Z,12.40
2018-05-14T01:42:22.264Z,12.40
2018-05-14T01:44:50.704Z,12.40
2018-05-14T01:47:19.249Z,12.30
2018-05-14T01:49:48.656Z,12.40
2018-05-14T01:52:17.934Z,12.30
2018-05-14T01:54:47.153Z,12.40
2018-05-14T01:57:16.375Z,12.50
2018-05-14T01:59:44.821Z,12.40
2018-05-14T02:02:13.268Z,12.50
2018-05-14T02:04:41.733Z,12.30
2018-05-14T02:07:10.189Z,12.30
2018-05-14T02:09:39.614Z,12.20
2018-05-14T02:12:08.192Z,12.20
2018-05-14T02:14:36.840Z,12.20
2018-05-14T02:17:05.300Z,12.30
2018-05-14T02:19:33.772Z,12.30
2018-05-14T02:22:02.383Z,12.20
2018-05-14T02:24:30.988Z,12.20
2018-05-14T02:27:00.185Z,12.20
2018-05-14T02:29:29.416Z,12.30
2018-05-14T02:31:57.941Z,12.20
2018-05-14T02:34:26.581Z,12.20
2018-05-14T02:36:55.248Z,12.30
2018-05-14T02:39:24.464Z,12.20
2018-05-14T02:41:52.930Z,12.10
2018-05-14T02:44:22.142Z,12.20
2018-05-14T02:46:50.613Z,12.10
2018-05-14T02:49:19.836Z,12.10
2018-05-14T02:51:48.495Z,12.00
2018-05-14T02:54:17.799Z,12.10
2018-05-14T02:56:47.237Z,12.10
2018-05-14T02:59:15.786Z,12.10
2018-05-14T03:01:44.992Z,12.10
2018-05-14T03:04:14.201Z,12.10
2018-05-14T03:06:42.665Z,12.00
2018-05-14T03:09:11.881Z,12.10
2018-05-14T03:11:40.537Z,12.00
2018-05-14T03:14:08.742Z,12.00
2018-05-14T03:16:37.422Z,11.90
2018-05-14T03:19:06.831Z,12.20
2018-05-14T03:21:36.801Z,12.10
2018-05-14T03:24:04.943Z,12.00
2018-05-14T03:26:33.173Z,12.00
2018-05-14T03:29:01.637Z,12.10
2018-05-14T03:31:30.086Z,12.10
2018-05-14T03:33:58.612Z,12.10
2018-05-14T03:36:27.357Z,12.00
2018-05-14T03:38:56.128Z,11.90
2018-05-14T03:41:24.326Z,12.00
2018-05-14T03:43:53.089Z,11.90
2018-05-14T03:46:21.704Z,11.90
2018-05-14T03:48:50.165Z,12.00
2018-05-14T03:51:18.832Z,11.90
2018-05-14T03:53:48.064Z,11.90
2018-05-14T03:56:16.731Z,11.80
2018-05-14T03:58:56.348Z,11.80
2018-05-14T04:01:36.198Z,12.00
2018-05-14T04:04:15.981Z,11.70
2018-05-14T04:06:44.415Z,11.70
2018-05-14T04:09:14.373Z,11.80
2018-05-14T04:11:42.890Z,11.80
2018-05-14T04:14:11.424Z,11.80
2018-05-14T04:16:40.754Z,11.80
2018-05-14T04:19:09.305Z,11.70
2018-05-14T04:21:37.757Z,11.70
2018-05-14T04:24:06.208Z,11.70
2018-05-14T04:26:36.520Z,11.50
2018-05-14T04:29:05.017Z,11.70
2018-05-14T04:31:33.448Z,11.50
2018-05-14T04:34:01.913Z,11.50
2018-05-14T04:36:30.093Z,11.60
2018-05-14T04:38:58.748Z,11.60
2018-05-14T04:41:27.296Z,11.70
2018-05-14T04:43:56.553Z,11.50
2018-05-14T04:46:24.989Z,11.50
2018-05-14T04:48:53.473Z,11.50
2018-05-14T04:51:21.913Z,11.60
2018-05-14T04:53:51.211Z,11.90
2018-05-14T04:56:19.672Z,11.80
2018-05-14T04:58:48.112Z,11.80
2018-05-14T05:01:17.460Z,11.70
2018-05-14T05:03:45.905Z,11.70
2018-05-14T05:06:14.407Z,11.70
2018-05-14T05:08:42.970Z,12.00
2018-05-14T05:11:12.193Z,12.00
2018-05-14T05:13:40.651Z,11.90
2018-05-14T05:16:10.013Z,12.10
2018-05-14T05:18:38.473Z,12.10
2018-05-14T05:21:06.920Z,12.00
2018-05-14T05:23:35.592Z,11.90
2018-05-14T05:26:04.807Z,11.80
2018-05-14T05:28:34.216Z,11.90
2018-05-14T05:31:02.329Z,11.90
2018-05-14T05:33:30.781Z,11.90
2018-05-14T05:35:59.244Z,12.10
2018-05-14T05:38:28.454Z,11.90
2018-05-14T05:40:56.921Z,11.80
2018-05-14T05:43:26.129Z,11.90
2018-05-14T05:45:54.612Z,11.80
2018-05-14T05:48:24.040Z,12.00
2018-05-14T05:50:52.492Z,11.90
2018-05-14T05:53:21.703Z,11.90
2018-05-14T05:55:50.158Z,11.80
2018-05-14T05:58:18.593Z,11.80
2018-05-14T06:00:47.124Z,11.70
2018-05-14T06:03:15.561Z,11.90
2018-05-14T06:05:43.996Z,11.80
2018-05-14T06:08:13.234Z,11.60
2018-05-14T06:10:41.873Z,11.50
2018-05-14T06:13:11.097Z,11.60
2018-05-14T06:15:39.534Z,11.50
2018-05-14T06:18:08.929Z,11.80
2018-05-14T06:20:37.372Z,11.70
2018-05-14T06:23:06.192Z,11.80
2018-05-14T06:25:34.616Z,11.90
2018-05-14T06:28:03.536Z,12.10
2018-05-14T06:30:32.037Z,12.00
2018-05-14T06:33:00.504Z,12.10
2018-05-14T06:35:29.013Z,12.00
2018-05-14T06:37:58.408Z,12.10
2018-05-14T06:40:26.874Z,12.10
2018-05-14T06:42:55.535Z,12.20
2018-05-14T06:45:24.740Z,12.00
2018-05-14T06:47:54.004Z,12.30
2018-05-14T06:50:22.663Z,12.20
2018-05-14T06:52:51.292Z,12.20
2018-05-14T06:55:19.794Z,12.20
2018-05-14T06:57:48.545Z,12.20
2018-05-14T07:00:17.016Z,12.30
2018-05-14T07:02:45.738Z,12.40
2018-05-14T07:05:14.121Z,12.30
2018-05-14T07:07:42.665Z,12.30
2018-05-14T07:10:11.877Z,12.20
2018-05-14T07:12:40.351Z,12.20
2018-05-14T07:15:08.793Z,12.40
2018-05-14T07:17:37.264Z,12.70
2018-05-14T07:20:05.712Z,12.60
2018-05-14T07:22:35.686Z,13.00
2018-05-14T07:25:04.117Z,13.00
2018-05-14T07:27:32.559Z,13.10
2018-05-14T07:30:01.012Z,13.20
2018-05-14T07:32:30.389Z,13.20
2018-05-14T07:34:59.194Z,13.20
2018-05-14T07:37:28.614Z,13.10
2018-05-14T07:39:57.085Z,13.00
2018-05-14T07:42:26.305Z,13.00
2018-05-14T07:44:54.805Z,12.90
2018-05-14T07:47:23.385Z,12.80
2018-05-14T07:49:51.840Z,12.80
2018-05-14T07:52:21.113Z,12.90
2018-05-14T07:54:49.981Z,12.80
2018-05-14T07:57:19.219Z,13.10
2018-05-14T07:59:47.814Z,13.10
2018-05-14T08:02:17.037Z,13.10
2018-05-14T08:04:45.496Z,13.10
2018-05-14T08:07:14.786Z,12.80
2018-05-14T08:09:43.240Z,12.70
2018-05-14T08:12:11.681Z,13.00
2018-05-14T08:14:40.141Z,13.00
2018-05-14T08:17:09.373Z,12.70
2018-05-14T08:22:09.686Z,12.40
2018-05-14T08:24:38.981Z,12.60
2018-05-14T08:27:08.216Z,12.70
2018-05-14T08:29:36.661Z,12.60
2018-05-14T08:32:05.906Z,12.40
2018-05-14T08:34:34.349Z,12.40
2018-05-14T08:37:03.401Z,12.80
2018-05-14T08:39:32.101Z,12.80
2018-05-14T08:42:00.553Z,12.50
2018-05-14T08:44:29.014Z,12.70
2018-05-14T08:46:57.465Z,12.60
2018-05-14T08:49:26.181Z,12.60
2018-05-14T08:51:55.593Z,12.60
2018-05-14T08:54:24.155Z,12.50
2018-05-14T08:56:53.481Z,12.60
2018-05-14T08:59:21.927Z,12.50
2018-05-14T09:01:50.353Z,12.60
2018-05-14T09:04:18.806Z,12.80
2018-05-14T09:06:48.108Z,12.80
2018-05-14T09:09:17.417Z,12.70
2018-05-14T09:11:46.060Z,12.70
2018-05-14T09:14:14.785Z,12.60
2018-05-14T09:16:44.009Z,12.70
2018-05-14T09:19:12.474Z,12.70
2018-05-14T09:21:41.881Z,12.90
2018-05-14T09:24:10.336Z,12.80
2018-05-14T09:26:38.821Z,12.90
2018-05-14T09:29:08.053Z,12.70
2018-05-14T09:31:36.504Z,12.60
2018-05-14T09:34:05.704Z,12.60
2018-05-14T09:36:34.938Z,12.80
2018-05-14T09:39:02.801Z,12.70
2018-05-14T09:41:31.248Z,12.80
2018-05-14T09:43:59.706Z,12.80
2018-05-14T09:46:28.236Z,13.00
2018-05-14T09:48:57.664Z,12.80
2018-05-14T09:51:26.116Z,12.80
2018-05-14T09:53:55.336Z,13.00
2018-05-14T09:56:23.833Z,12.90
2018-05-14T09:58:51.969Z,13.30
2018-05-14T10:01:21.253Z,13.10
2018-05-14T10:03:49.773Z,13.00
2018-05-14T10:06:18.216Z,13.30
2018-05-14T10:08:46.642Z,13.10
2018-05-14T10:11:15.109Z,13.40
2018-05-14T10:13:44.808Z,13.30
2018-05-14T10:16:13.694Z,13.20
2018-05-14T10:18:42.409Z,13.10
2018-05-14T10:21:11.040Z,13.20
2018-05-14T10:23:39.493Z,13.00
2018-05-14T10:26:07.982Z,13.00
2018-05-14T10:28:36.442Z,13.00
2018-05-14T10:31:04.900Z,12.90
2018-05-14T10:33:33.341Z,13.00
2018-05-14T10:36:01.848Z,13.20
2018-05-14T10:38:30.332Z,13.10
2018-05-14T10:40:58.785Z,13.30
2018-05-14T10:43:27.249Z,13.30
2018-05-14T10:45:55.797Z,13.20
2018-05-14T12:13:06.827Z,13.10
2018-05-14T12:15:35.284Z,14.10
2018-05-14T12:18:03.788Z,14.30
2018-05-14T12:20:32.462Z,14.10
2018-05-14T12:23:00.934Z,14.00
2018-05-14T17:04:48.885Z,14.20
2018-05-14T17:07:18.146Z,14.20
2018-05-14T17:09:46.882Z,14.20
2018-05-14T17:12:16.128Z,14.40
2018-05-14T17:14:44.625Z,14.30
2018-05-14T17:17:13.128Z,14.40
2018-05-14T17:19:41.729Z,14.40
2018-05-14T17:22:11.057Z,14.20
2018-05-14T17:24:39.726Z,14.20
2018-05-14T17:27:08.193Z,14.30
2018-05-14T17:29:36.750Z,14.40
2018-05-14T17:32:05.421Z,14.30
2018-05-14T17:34:33.935Z,14.30
2018-05-14T17:37:02.545Z,14.30
2018-05-14T17:39:31.059Z,14.20
2018-05-14T17:41:59.507Z,14.30
2018-05-14T17:44:28.731Z,14.30
2018-05-14T17:46:57.374Z,14.30
2018-05-14T17:49:26.717Z,14.30
2018-05-14T17:51:55.148Z,14.20
2018-05-14T17:54:23.628Z,14.40
2018-05-14T17:56:52.121Z,14.40
2018-05-14T17:59:20.709Z,14.30
2018-05-14T18:01:50.061Z,14.20
2018-05-14T18:04:18.541Z,14.20
2018-05-14T18:06:46.992Z,14.30
2018-05-14T18:09:16.213Z,14.30
2018-05-14T18:11:44.900Z,14.20
2018-05-14T18:14:13.325Z,14.30
2018-05-14T18:16:41.799Z,14.30
2018-05-14T18:19:10.259Z,14.20
2018-05-14T18:21:38.458Z,14.20
2018-05-14T18:24:06.804Z,14.10
2018-05-14T18:26:40.738Z,14.00
2018-05-14T18:29:09.401Z,14.00
2018-05-14T18:31:43.160Z,13.90
2018-05-14T18:34:11.390Z,13.80
2018-05-14T18:36:39.957Z,13.80
2018-05-14T18:39:08.520Z,13.80
2018-05-14T18:41:37.147Z,13.80
2018-05-14T18:44:11.009Z,13.80
2018-05-14T18:46:40.276Z,13.60
2018-05-14T18:49:08.762Z,13.50
2018-05-14T18:51:37.251Z,13.40
2018-05-14T18:54:05.720Z,13.40
2018-05-14T18:56:34.160Z,13.40
2018-05-14T18:59:02.667Z,13.30
2018-05-14T19:01:31.260Z,13.30
2018-05-14T19:03:59.734Z,13.30
2018-05-14T19:06:28.218Z,13.20
2018-05-14T19:08:57.635Z,13.10
2018-05-14T19:11:31.789Z,13.00
2018-05-14T19:14:00.328Z,13.00
2018-05-14T19:16:34.222Z,13.10
2018-05-14T19:19:02.685Z,13.10
2018-05-14T19:21:31.929Z,13.10
2018-05-14T19:24:00.466Z,13.00
2018-05-14T19:26:29.829Z,13.10
2018-05-14T19:29:03.799Z,13.10
2018-05-14T19:31:32.296Z,13.00
2018-05-14T19:34:06.096Z,13.10
2018-05-14T19:36:34.592Z,13.10
2018-05-14T19:39:02.898Z,13.00
2018-05-14T19:41:31.484Z,13.00
2018-05-14T19:44:00.141Z,13.00
2018-05-14T19:46:28.827Z,13.10
2018-05-14T19:48:57.395Z,13.20
2018-05-14T19:51:26.804Z,13.30
2018-05-14T19:53:55.263Z,13.30
2018-05-14T19:56:24.498Z,13.30
2018-05-14T19:58:52.945Z,13.30
2018-05-14T20:01:22.385Z,13.40
2018-05-14T20:03:50.861Z,13.40
2018-05-14T20:06:19.350Z,13.40
2018-05-14T20:08:47.858Z,13.50
2018-05-14T20:11:16.336Z,13.50
2018-05-14T20:13:44.906Z,13.50
2018-05-14T20:16:13.377Z,13.60
2018-05-14T20:18:41.909Z,13.60
2018-05-14T20:21:10.408Z,13.60
2018-05-14T20:23:39.634Z,13.60
2018-05-14T20:26:08.107Z,13.50
2018-05-14T20:28:37.355Z,13.60
2018-05-14T20:31:05.849Z,13.50
2018-05-14T20:36:03.857Z,13.50
2018-05-14T20:38:32.332Z,13.60
2018-05-14T20:41:00.788Z,13.70
2018-05-14T20:43:29.233Z,13.70
2018-05-14T20:45:57.942Z,13.60
2018-05-14T20:48:26.405Z,13.60
2018-05-14T20:50:54.887Z,13.60
2018-05-14T20:53:23.351Z,13.60
2018-05-14T20:55:51.821Z,13.60
2018-05-14T20:58:21.029Z,13.60
2018-05-14T21:00:50.369Z,13.60
2018-05-14T21:03:18.925Z,13.50
2018-05-14T21:05:48.241Z,13.50
2018-05-14T21:08:16.883Z,13.50
2018-05-14T21:10:45.356Z,13.50
2018-05-14T21:13:13.819Z,13.50
2018-05-14T21:15:42.297Z,13.50
2018-05-14T21:18:10.765Z,13.50
2018-05-14T21:20:39.817Z,13.40
2018-05-14T21:23:08.266Z,13.40
2018-05-14T21:25:36.764Z,13.40
2018-05-14T21:28:05.074Z,13.40
2018-05-14T21:30:34.302Z,13.40
2018-05-14T21:33:02.802Z,13.40
2018-05-14T21:35:31.267Z,13.40
2018-05-14T21:37:59.700Z,13.40
2018-05-14T21:40:28.177Z,13.30
2018-05-14T21:42:56.615Z,13.40
2018-05-14T21:45:25.048Z,13.40
2018-05-14T21:47:53.764Z,13.30
2018-05-14T21:50:22.271Z,13.40
2018-05-14T21:52:51.033Z,13.30
2018-05-14T21:55:19.916Z,13.30
2018-05-14T21:57:49.172Z,13.30
2018-05-14T22:00:17.607Z,13.30
2018-05-14T22:02:46.072Z,13.30
2018-05-14T22:05:15.302Z,13.30
2018-05-14T22:07:43.788Z,13.20
2018-05-14T22:10:12.240Z,13.30
2018-05-14T22:12:41.461Z,13.10
2018-05-14T22:15:09.909Z,13.10
2018-05-14T22:17:38.634Z,13.30
2018-05-14T22:20:06.760Z,13.30
2018-05-14T22:22:35.207Z,13.30
2018-05-14T22:25:03.341Z,13.30
2018-05-14T22:27:32.553Z,13.20
2018-05-14T22:30:01.005Z,13.10
2018-05-14T22:32:29.479Z,13.20
2018-05-14T22:34:57.928Z,13.20
2018-05-14T22:37:26.428Z,13.10
2018-05-14T22:39:55.840Z,13.00
2018-05-14T22:42:24.508Z,13.00
2018-05-14T22:44:52.989Z,13.00
2018-05-14T22:47:21.444Z,13.00
2018-05-14T22:49:49.562Z,13.00
2018-05-14T22:52:17.830Z,13.00
2018-05-14T22:54:46.272Z,13.00
2018-05-14T22:57:14.917Z,13.00
2018-05-14T22:59:43.441Z,12.90
2018-05-14T23:02:11.897Z,13.00
2018-05-14T23:04:40.352Z,13.00
2018-05-14T23:07:08.813Z,12.90
2018-05-14T23:09:37.425Z,12.90
2018-05-14T23:12:06.081Z,12.90
2018-05-14T23:14:34.540Z,12.90
2018-05-14T23:17:03.149Z,12.90
2018-05-14T23:19:31.800Z,12.80
2018-05-14T23:22:01.053Z,12.80
2018-05-14T23:24:29.484Z,12.80
2018-05-14T23:26:58.836Z,12.80
2018-05-14T23:29:27.280Z,12.80
2018-05-14T23:31:55.837Z,12.80
2018-05-14T23:34:24.276Z,12.70
2018-05-14T23:36:52.756Z,12.80
2018-05-14T23:39:21.222Z,12.80
2018-05-14T23:41:49.683Z,12.70
2018-05-14T23:44:18.886Z,12.70
2018-05-14T23:46:48.245Z,12.80
2018-05-14T23:49:16.764Z,12.70
2018-05-14T23:51:46.199Z,12.70
2018-05-14T23:54:14.680Z,12.60
2018-05-14T23:56:43.112Z,12.70
2018-05-14T23:59:11.580Z,12.70
